createdAt,value
2023-01-27T00:00:38.357Z,-26.3
2023-01-27T00:02:40.391Z,-26.3
2023-01-27T00:04:41.725Z,-26.4
2023-01-27T00:06:43.011Z,-26.8
2023-01-27T00:08:44.359Z,-26.1
2023-01-27T00:10:45.509Z,-26.6
2023-01-27T00:12:46.862Z,-26.7
2023-01-27T00:14:47.931Z,-26.3
2023-01-27T00:16:49.421Z,-26.4
2023-01-27T00:18:51.119Z,-26.4
2023-01-27T00:20:52.883Z,-26.5
2023-01-27T00:22:54.389Z,-26.3
2023-01-27T00:24:55.821Z,-26.4
2023-01-27T00:26:57.506Z,-26.5
2023-01-27T00:28:58.763Z,-26.4
2023-01-27T00:35:03.895Z,-26.5
2023-01-27T00:37:05.570Z,-26.5
2023-01-27T00:39:07.073Z,-26.6
2023-01-27T00:41:08.781Z,-26.5
2023-01-27T00:43:10.301Z,-26.6
2023-01-27T00:45:11.596Z,-26.6
2023-01-27T00:47:13.194Z,-26.2
2023-01-27T00:49:14.459Z,-26.6
2023-01-27T00:51:16.046Z,-26.5
2023-01-27T00:55:19.062Z,-26.9
2023-01-27T00:57:20.149Z,-26.6
2023-01-27T00:59:22.066Z,-26.5
2023-01-27T01:01:23.280Z,-26.6
2023-01-27T01:03:25.099Z,-26.4
2023-01-27T01:05:26.833Z,-26.5
2023-01-27T01:07:28.096Z,-26.7
2023-01-27T01:09:29.389Z,-26.5
2023-01-27T01:11:31.470Z,-26.3
2023-01-27T01:17:36.023Z,-26.7
2023-01-27T01:19:37.358Z,-26.6
2023-01-27T01:21:40.682Z,-26.6
2023-01-27T01:23:39.758Z,-26.2
2023-01-27T01:25:40.978Z,-26.6
2023-01-27T01:27:43.039Z,-26.5
2023-01-27T01:31:45.529Z,-26.5
2023-01-27T01:33:47.397Z,-26.6
2023-01-27T01:35:48.816Z,-26.7
2023-01-27T01:37:50.496Z,-26.5
2023-01-27T01:41:53.452Z,-26.3
2023-01-27T01:43:55.382Z,-26.6
2023-01-27T01:47:58.755Z,-26.5
2023-01-27T01:50:00.205Z,-26.3
2023-01-27T01:52:01.734Z,-26.5
2023-01-27T01:54:03.404Z,-26.7
2023-01-27T02:00:08.570Z,-26.6
2023-01-27T02:02:10.667Z,-26.4
2023-01-27T02:04:12.497Z,-26.3
2023-01-27T02:06:14.452Z,-26.5
2023-01-27T02:08:16.217Z,-26.7
2023-01-27T02:10:17.454Z,-26.5
2023-01-27T02:14:21.332Z,-26.5
2023-01-27T02:16:23.117Z,-26.6
2023-01-27T02:20:26.509Z,-26.5
2023-01-27T02:22:28.618Z,-26.7
2023-01-27T02:24:30.391Z,-26.6
2023-01-27T02:26:31.653Z,-26.4
2023-01-27T02:30:35.167Z,-26.3
2023-01-27T02:32:37.624Z,-26.5
2023-01-27T02:34:38.115Z,-26.6
2023-01-27T02:36:39.212Z,-26.7
2023-01-27T02:40:41.875Z,-26.3
2023-01-27T02:42:43.405Z,-26.3
2023-01-27T02:44:45.151Z,-26.6
2023-01-27T02:46:46.810Z,-26.3
2023-01-27T02:48:48.529Z,-26.5
2023-01-27T02:50:50.285Z,-26.5
2023-01-27T02:52:52.206Z,-26.4
2023-01-27T02:56:54.935Z,-26.2
2023-01-27T02:58:56.959Z,-26.4
2023-01-27T03:03:00.144Z,-26.6
2023-01-27T03:05:01.804Z,-26.1
2023-01-27T03:07:03.171Z,-26.7
2023-01-27T03:09:05.024Z,-26.7
2023-01-27T03:13:08.032Z,-26.5
2023-01-27T03:15:09.092Z,-26.1
2023-01-27T03:17:10.320Z,-26.3
2023-01-27T03:19:11.682Z,-26.6
2023-01-27T03:23:14.369Z,-26.4
2023-01-27T03:25:15.703Z,-26.4
2023-01-27T03:27:16.782Z,-26.4
2023-01-27T03:29:18.128Z,-26.7
2023-01-27T03:33:20.480Z,-26.5
2023-01-27T03:35:21.977Z,-26.6
2023-01-27T03:37:23.200Z,-26.5
2023-01-27T03:39:24.806Z,-26.3
2023-01-27T03:41:26.163Z,-26.5
2023-01-27T03:43:27.582Z,-26.6
2023-01-27T03:45:29.647Z,-26.6
2023-01-27T03:47:30.897Z,-26.6
2023-01-27T03:51:33.486Z,-26.4
2023-01-27T03:55:36.578Z,-26.5
2023-01-27T03:57:38.203Z,-26.5
2023-01-27T03:59:40.194Z,-26.4
2023-01-27T04:01:41.819Z,-26.7
2023-01-27T04:05:44.763Z,-26.4
2023-01-27T04:07:45.954Z,-26.6
2023-01-27T04:09:47.233Z,-26.5
2023-01-27T04:11:48.976Z,-26.6
2023-01-27T04:13:50.259Z,-26.3
2023-01-27T04:15:51.589Z,-26.5
2023-01-27T04:17:52.949Z,-26.8
2023-01-27T04:19:54.492Z,-26.5
2023-01-27T04:21:56.254Z,-26.7
2023-01-27T04:23:57.800Z,-26.5
2023-01-27T04:25:58.859Z,-26.6
2023-01-27T04:28:00.855Z,-26.7
2023-01-27T04:30:02.298Z,-26.3
2023-01-27T04:32:03.878Z,-26.4
2023-01-27T04:34:05.072Z,-26.5
2023-01-27T04:38:08.569Z,-26.6
2023-01-27T04:40:10.025Z,-26.5
2023-01-27T04:42:11.802Z,-26.6
2023-01-27T04:44:13.220Z,-26.6
2023-01-27T04:48:16.236Z,-26.3
2023-01-27T04:50:17.369Z,-26.8
2023-01-27T04:52:18.721Z,-26.6
2023-01-27T04:54:20.419Z,-26.4
2023-01-27T04:56:22.123Z,-26.6
2023-01-27T04:58:23.340Z,-26.5
2023-01-27T05:01:08.507Z,-26.5
2023-01-27T05:05:12.145Z,-26.5
2023-01-27T05:07:13.171Z,-26.5
2023-01-27T05:09:14.589Z,-26.5
2023-01-27T05:11:16.679Z,-26.4
2023-01-27T05:15:20.305Z,-26.6
2023-01-27T05:17:21.373Z,-26.5
2023-01-27T05:19:23.051Z,-26.6
2023-01-27T05:21:25.042Z,-26.4
2023-01-27T05:23:26.883Z,-26.7
2023-01-27T05:25:28.581Z,-26.3
2023-01-27T05:27:30.316Z,-26.9
2023-01-27T05:29:31.747Z,-26.5
2023-01-27T05:31:33.431Z,-26.5
2023-01-27T05:33:34.464Z,-26.5
2023-01-27T05:35:36.079Z,-26.7
2023-01-27T05:37:37.831Z,-26.5
2023-01-27T05:39:38.964Z,-26.5
2023-01-27T05:41:40.397Z,-26.5
2023-01-27T05:43:41.908Z,-26.6
2023-01-27T05:45:43.453Z,-26.3
2023-01-27T05:47:45.166Z,-26.6
2023-01-27T05:49:47.011Z,-26.5
2023-01-27T05:51:48.949Z,-26.4
2023-01-27T05:53:50.381Z,-26.5
2023-01-27T05:55:52.225Z,-26.5
2023-01-27T05:59:55.797Z,-26.3
2023-01-27T06:01:57.257Z,-26.5
2023-01-27T06:03:58.863Z,-26.7
2023-01-27T06:05:59.991Z,-26.6
2023-01-27T06:08:01.059Z,-26.8
2023-01-27T06:10:02.283Z,-26.2
2023-01-27T06:14:05.808Z,-26.5
2023-01-27T06:16:07.241Z,-26.5
2023-01-27T06:18:08.580Z,-26.4
2023-01-27T06:20:09.718Z,-26.6
2023-01-27T06:22:11.265Z,-26.3
2023-01-27T06:24:13.444Z,-26.6
2023-01-27T06:26:13.755Z,-26.6
2023-01-27T06:28:28.033Z,-26.7
2023-01-27T06:30:17.645Z,-26.4
2023-01-27T06:32:19.005Z,-26.3
2023-01-27T06:36:22.159Z,-26.6
2023-01-27T06:38:23.375Z,-26.3
2023-01-27T06:40:24.931Z,-26.6
2023-01-27T06:42:26.061Z,-26.6
2023-01-27T06:44:27.294Z,-26.3
2023-01-27T06:46:28.488Z,-26.3
2023-01-27T06:48:29.913Z,-26.6
2023-01-27T06:50:31.151Z,-26.5
2023-01-27T06:52:32.884Z,-26.4
2023-01-27T06:58:36.920Z,-26.5
2023-01-27T07:00:38.511Z,-26.5
2023-01-27T07:02:40.521Z,-26.6
2023-01-27T07:04:41.627Z,-26.6
2023-01-27T07:06:42.936Z,-26.5
2023-01-27T07:08:44.907Z,-26.7
2023-01-27T07:12:48.476Z,-26.6
2023-01-27T07:14:50.271Z,-26.5
2023-01-27T07:16:51.895Z,-26.4
2023-01-27T07:18:53.351Z,-26.7
2023-01-27T07:22:56.704Z,-26.6
2023-01-27T07:24:58.176Z,-26.3
2023-01-27T07:29:01.820Z,-26.6
2023-01-27T07:31:03.880Z,-26.3
2023-01-27T07:33:05.858Z,-26.6
2023-01-27T07:35:07.309Z,-26.6
2023-01-27T07:41:12.420Z,-26.7
2023-01-27T07:43:13.973Z,-26.6
2023-01-27T07:45:15.719Z,-26.4
2023-01-27T07:47:17.092Z,-26.4
2023-01-27T07:49:18.741Z,-26.5
2023-01-27T07:51:20.734Z,-26.7
2023-01-27T07:53:22.515Z,-26.2
2023-01-27T07:55:23.647Z,-26.6
2023-01-27T07:57:25.595Z,-26.6
2023-01-27T08:01:28.848Z,-26.3
2023-01-27T08:03:30.289Z,-26.3
2023-01-27T08:05:32.214Z,-26.5
2023-01-27T08:07:33.530Z,-26.6
2023-01-27T08:11:35.964Z,-26.4
2023-01-27T08:13:37.532Z,-26.7
2023-01-27T08:15:39.269Z,-26.5
2023-01-27T08:17:40.709Z,-26.4
2023-01-27T08:21:43.289Z,-26.5
2023-01-27T08:23:45.160Z,-26.5
2023-01-27T08:25:46.798Z,-26.5
2023-01-27T08:27:47.865Z,-26.5
2023-01-27T08:31:50.712Z,-26.7
2023-01-27T08:33:51.629Z,-26.8
2023-01-27T08:35:53.010Z,-26.4
2023-01-27T08:37:54.287Z,-26.7
2023-01-27T08:39:55.484Z,-26.6
2023-01-27T08:41:56.650Z,-26.4
2023-01-27T08:43:58.034Z,-26.4
2023-01-27T08:45:59.847Z,-26.6
2023-01-27T08:48:00.827Z,-26.5
2023-01-27T08:50:02.338Z,-26.5
2023-01-27T08:54:05.455Z,-26.5
2023-01-27T08:56:07.036Z,-26.3
2023-01-27T08:58:08.917Z,-26.2
2023-01-27T09:00:10.650Z,-26.5
2023-01-27T09:04:13.697Z,-23.9
2023-01-27T09:06:14.996Z,-26.2
2023-01-27T09:08:16.791Z,-26.5
2023-01-27T09:10:18.553Z,-26.7
2023-01-27T09:12:20.247Z,-26.7
2023-01-27T09:14:21.715Z,-26.5
2023-01-27T09:16:23.068Z,-26.4
2023-01-27T09:18:24.374Z,-26.6
2023-01-27T09:20:25.493Z,-26.3
2023-01-27T09:22:26.723Z,-26.5
2023-01-27T09:24:28.462Z,-26.4
2023-01-27T09:26:30.390Z,-26.8
2023-01-27T09:28:31.453Z,-26.8
2023-01-27T09:30:32.832Z,-26.5
2023-01-27T09:32:34.316Z,-26.5
2023-01-27T09:36:37.303Z,-26.5
2023-01-27T09:38:38.733Z,-23.5
2023-01-27T09:40:40.167Z,-23.7
2023-01-27T09:42:41.320Z,-23.5
2023-01-27T09:48:46.228Z,-15
2023-01-27T09:50:47.850Z,-12.9
2023-01-27T09:52:49.309Z,-15.1
2023-01-27T09:54:51.352Z,-16.1
2023-01-27T09:56:52.943Z,-18.1
2023-01-27T09:58:54.528Z,-16
2023-01-27T10:00:56.398Z,-10.4
2023-01-27T10:02:57.638Z,-10.9
2023-01-27T10:04:59.303Z,-13.6
2023-01-27T10:07:01.136Z,-16.79
2023-01-27T10:09:02.311Z,-19.1
2023-01-27T10:11:04.201Z,-19.1
2023-01-27T10:13:05.835Z,-16.4
2023-01-27T10:15:07.259Z,-17.6
2023-01-27T10:17:08.764Z,-17.9
2023-01-27T10:19:10.368Z,-20.9
2023-01-27T10:21:11.630Z,-22.8
2023-01-27T10:23:13.006Z,-26.5
2023-01-27T10:25:14.279Z,-26.6
2023-01-27T10:27:15.700Z,-20.7
2023-01-27T10:29:17.008Z,-13.8
2023-01-27T10:31:18.766Z,-9.3
2023-01-27T10:33:20.470Z,-12.6
2023-01-27T10:35:22.534Z,-14
2023-01-27T10:37:24.003Z,-14
2023-01-27T10:39:25.241Z,-14.5
2023-01-27T10:41:26.801Z,-12.1
2023-01-27T10:45:29.442Z,-16.29
2023-01-27T10:47:30.858Z,-12.3
2023-01-27T10:49:32.711Z,-0.3
2023-01-27T10:51:34.012Z,9.2
2023-01-27T10:53:35.167Z,28.2
2023-01-27T10:55:37.049Z,28.9
2023-01-27T10:57:38.228Z,23.8
2023-01-27T10:59:39.967Z,32
2023-01-27T11:01:41.020Z,32
2023-01-27T11:03:42.271Z,25.5
2023-01-27T11:05:43.253Z,19.6
2023-01-27T11:07:44.999Z,15.1
2023-01-27T11:11:48.321Z,8.6
2023-01-27T11:13:49.309Z,3.6
2023-01-27T11:17:52.398Z,-6.7
2023-01-27T11:19:53.496Z,-6.4
2023-01-27T11:22:06.522Z,-12.1
2023-01-27T11:23:56.569Z,-16.6
2023-01-27T11:30:01.929Z,-13.5
2023-01-27T11:32:03.571Z,-14.9
2023-01-27T11:34:05.240Z,-13.9
2023-01-27T11:36:06.835Z,-14.4
2023-01-27T11:38:15.235Z,-11.4
2023-01-27T11:40:09.533Z,-14.1
2023-01-27T11:44:13.118Z,-14.1
2023-01-27T11:44:57.037Z,-13.6
2023-01-27T11:51:01.505Z,-7.8
2023-01-27T11:53:03.476Z,-7
2023-01-27T11:55:04.892Z,-1.2
2023-01-27T11:57:06.179Z,4.4
2023-01-27T11:59:07.488Z,2.8
2023-01-27T12:01:09.044Z,2.9
2023-01-27T12:03:10.229Z,2.5
2023-01-27T12:05:11.340Z,16.79
2023-01-27T12:07:13.040Z,8.7
2023-01-27T12:09:14.512Z,6.2
2023-01-27T12:11:16.023Z,17.4
2023-01-27T12:15:18.865Z,1.4
2023-01-27T12:17:20.271Z,2.4
2023-01-27T12:19:22.157Z,5.8
2023-01-27T12:21:24.060Z,11.6
2023-01-27T12:23:25.501Z,7.7
2023-01-27T12:25:26.822Z,9.3
2023-01-27T12:27:28.214Z,9.8
2023-01-27T12:33:33.195Z,-6.1
2023-01-27T12:35:35.028Z,3.7
2023-01-27T12:37:36.526Z,-0.6
2023-01-27T12:39:37.821Z,-8.5
2023-01-27T12:41:39.274Z,-10.9
2023-01-27T12:43:40.553Z,-6
2023-01-27T12:45:42.081Z,-7.5
2023-01-27T12:47:43.942Z,-0.2
2023-01-27T12:49:45.008Z,3.6
2023-01-27T12:51:46.834Z,2.4
2023-01-27T12:53:48.354Z,-4.6
2023-01-27T12:55:50.152Z,-4.9
2023-01-27T12:57:51.563Z,-5.6
2023-01-27T12:59:52.831Z,1
2023-01-27T13:01:54.047Z,6.8
2023-01-27T13:03:55.942Z,3.6
2023-01-27T13:05:57.401Z,-1
2023-01-27T13:07:58.866Z,2.2
2023-01-27T13:10:02.657Z,3
2023-01-27T13:12:02.348Z,-2.9
2023-01-27T13:14:04.186Z,-3.3
2023-01-27T13:16:06.002Z,-1.1
2023-01-27T13:20:08.873Z,-4.1
2023-01-27T13:22:09.907Z,-0.6
2023-01-27T13:24:11.680Z,-2.6
2023-01-27T13:26:12.854Z,2.4
2023-01-27T13:32:17.693Z,16.79
2023-01-27T13:34:18.729Z,23.9
2023-01-27T13:36:20.528Z,29.2
2023-01-27T13:38:22.346Z,27
2023-01-27T13:40:23.934Z,26.2
2023-01-27T13:42:25.863Z,24.5
2023-01-27T13:44:27.378Z,26.8
2023-01-27T13:46:28.542Z,21.6
2023-01-27T13:48:30.015Z,8
2023-01-27T13:50:31.092Z,2.5
2023-01-27T13:52:32.338Z,4.6
2023-01-27T13:54:34.211Z,9.89
2023-01-27T13:56:36.092Z,2.4
2023-01-27T13:58:37.687Z,-0.7
2023-01-27T14:00:39.657Z,-3.8
2023-01-27T14:02:41.334Z,-6.1
2023-01-27T14:04:43.080Z,-7.3
2023-01-27T14:06:45.134Z,-13.9
2023-01-27T14:08:46.508Z,-15.8
2023-01-27T14:14:58.024Z,-24.4
2023-01-27T14:16:52.580Z,-25.9
2023-01-27T14:18:53.653Z,-26.4
2023-01-27T14:20:54.908Z,-26.5
2023-01-27T14:22:56.822Z,-26.4
2023-01-27T14:24:58.644Z,-26.7
2023-01-27T14:26:59.722Z,-26.6
2023-01-27T14:29:00.920Z,-26.6
2023-01-27T14:31:02.091Z,-26.6
2023-01-27T14:33:03.573Z,-26.5
2023-01-27T14:35:05.165Z,-26.5
2023-01-27T14:37:06.501Z,-26.8
2023-01-27T14:39:07.683Z,-26.3
2023-01-27T14:41:09.122Z,-26.3
2023-01-27T14:43:10.992Z,-24.3
2023-01-27T14:45:12.756Z,-26.5
2023-01-27T14:47:14.487Z,-26.4
2023-01-27T14:49:24.952Z,-26.6
2023-01-27T14:51:17.512Z,-26.5
2023-01-27T14:53:18.698Z,-26.6
2023-01-27T14:55:19.961Z,-26.6
2023-01-27T14:57:21.311Z,-26.3
2023-01-27T14:59:23.154Z,-26.3
2023-01-27T15:01:24.767Z,-26.5
2023-01-27T15:03:25.831Z,-26.6
2023-01-27T15:05:27.545Z,-26.3
2023-01-27T15:07:29.366Z,-26.6
2023-01-27T15:13:33.906Z,-26.7
2023-01-27T15:15:35.586Z,-26.5
2023-01-27T15:17:37.394Z,-26.5
2023-01-27T15:19:39.537Z,-26.4
2023-01-27T15:21:40.668Z,-26.7
2023-01-27T15:23:42.214Z,-26.3
2023-01-27T15:25:43.370Z,-26.7
2023-01-27T15:27:45.471Z,-26.3
2023-01-27T15:29:47.479Z,-26.5
2023-01-27T15:31:48.869Z,-26.1
2023-01-27T15:33:50.621Z,-26.6
2023-01-27T15:35:52.121Z,-26.3
2023-01-27T15:37:53.629Z,-26.4
2023-01-27T15:40:03.850Z,-26.3
2023-01-27T15:41:56.961Z,-26.7
2023-01-27T15:43:58.151Z,-26.8
2023-01-27T15:45:59.670Z,-26.7
2023-01-27T15:48:01.190Z,-26.4
2023-01-27T15:50:02.220Z,-26.2
2023-01-27T15:56:07.252Z,-26.8
2023-01-27T15:58:08.536Z,-26.6
2023-01-27T16:00:10.376Z,-26.7
2023-01-27T16:02:11.487Z,-26.6
2023-01-27T16:04:13.185Z,-26.5
2023-01-27T16:06:15.204Z,-26.8
2023-01-27T16:08:16.951Z,-26.5
2023-01-27T16:10:18.892Z,-26.6
2023-01-27T16:12:20.442Z,-26.6
2023-01-27T16:16:23.401Z,-26.2
2023-01-27T16:18:24.777Z,-26.5
2023-01-27T16:20:26.236Z,-26.5
2023-01-27T16:22:28.129Z,-26.7
2023-01-27T16:24:29.552Z,-26.6
2023-01-27T16:26:31.479Z,-26.6
2023-01-27T16:28:32.811Z,-26.5
2023-01-27T16:30:34.808Z,-26.5
2023-01-27T16:32:36.733Z,-26.6
2023-01-27T16:38:41.196Z,-26.3
2023-01-27T16:40:42.432Z,-26.6
2023-01-27T16:42:44.422Z,-26.5
2023-01-27T16:44:46.375Z,-26.3
2023-01-27T16:46:47.462Z,-26.6
2023-01-27T16:48:49.119Z,-26.5
2023-01-27T16:50:50.520Z,-26.2
2023-01-27T16:52:51.926Z,-26.5
2023-01-27T16:54:53.209Z,-26.7
2023-01-27T16:56:54.582Z,-26.6
2023-01-27T16:58:55.699Z,-26.2
2023-01-27T17:02:59.108Z,-26.5
2023-01-27T17:05:00.433Z,-26.5
2023-01-27T17:09:03.777Z,-26.5
2023-01-27T17:11:05.321Z,-26.5
2023-01-27T17:13:06.462Z,-26.6
2023-01-27T17:15:08.042Z,-26.6
2023-01-27T17:19:10.485Z,-26.4
2023-01-27T17:21:11.874Z,-26.1
2023-01-27T17:23:13.634Z,-26.5
2023-01-27T17:25:15.046Z,-26.6
2023-01-27T17:29:18.073Z,-26.6
2023-01-27T17:31:19.529Z,-26.6
2023-01-27T17:33:20.984Z,-26.4
2023-01-27T17:35:22.987Z,-26.5
2023-01-27T17:37:24.169Z,-26.7
2023-01-27T17:39:25.620Z,-26.5
2023-01-27T17:41:27.367Z,-26.6
2023-01-27T17:43:28.411Z,-26.5
2023-01-27T17:47:31.669Z,-26.6
2023-01-27T17:51:34.211Z,-26.5
2023-01-27T17:53:35.780Z,-26.2
2023-01-27T17:55:37.488Z,-26.3
2023-01-27T17:57:38.815Z,-26.7
2023-01-27T18:01:42.341Z,-26.4
2023-01-27T18:03:44.093Z,-26.7
2023-01-27T18:05:45.287Z,-26.4
2023-01-27T18:07:46.666Z,-26.7
2023-01-27T18:09:47.774Z,-26.7
2023-01-27T18:11:48.868Z,-26.7
2023-01-27T18:13:50.180Z,-26.5
2023-01-27T18:15:51.895Z,-26.6
2023-01-27T18:17:53.331Z,-26.6
2023-01-27T18:19:54.427Z,-26.5
2023-01-27T18:21:55.660Z,-26.5
2023-01-27T18:23:56.967Z,-26.6
2023-01-27T18:25:58.703Z,-26.9
2023-01-27T18:28:00.589Z,-26.5
2023-01-27T18:30:01.775Z,-26.5
2023-01-27T18:30:45.763Z,-26.3
2023-01-27T18:34:48.190Z,-26.5
2023-01-27T18:36:49.719Z,-26.6
2023-01-27T18:38:51.320Z,-26.6
2023-01-27T18:40:52.989Z,-26.2
2023-01-27T18:42:54.134Z,-26.7
2023-01-27T18:44:56.117Z,-26.7
2023-01-27T18:46:57.701Z,-26.4
2023-01-27T18:48:59.482Z,-26.6
2023-01-27T18:51:00.958Z,-26.6
2023-01-27T18:53:02.945Z,-26.3
2023-01-27T18:55:04.832Z,-26.5
2023-01-27T18:57:06.557Z,-26.6
2023-01-27T18:59:07.936Z,-26.4
2023-01-27T19:01:09.420Z,-26.6
2023-01-27T19:03:10.918Z,-26.6
2023-01-27T19:05:12.923Z,-26.3
2023-01-27T19:07:14.563Z,-26.6
2023-01-27T19:09:16.602Z,-26.5
2023-01-27T19:11:18.529Z,-26.5
2023-01-27T19:13:19.704Z,-26.5
2023-01-27T19:15:21.680Z,-26.7
2023-01-27T19:17:22.847Z,-26.6
2023-01-27T19:19:24.537Z,-26.7
2023-01-27T19:23:27.182Z,-26.6
2023-01-27T19:25:28.310Z,-26.8
2023-01-27T19:27:30.114Z,-26.6
2023-01-27T19:29:32.051Z,-26.6
2023-01-27T19:31:33.838Z,-26.5
2023-01-27T19:33:35.480Z,-26.6
2023-01-27T19:37:38.422Z,-26.5
2023-01-27T19:39:40.140Z,-26.7
2023-01-27T19:41:42.090Z,-26.6
2023-01-27T19:43:43.401Z,-26.4
2023-01-27T19:45:45.100Z,-26.5
2023-01-27T19:47:46.564Z,-26.6
2023-01-27T19:49:47.804Z,-26.4
2023-01-27T19:51:49.407Z,-26.5
2023-01-27T19:53:51.102Z,-26.5
2023-01-27T19:55:52.677Z,-26.3
2023-01-27T19:59:55.812Z,-26.6
2023-01-27T20:01:57.100Z,-26.3
2023-01-27T20:03:58.242Z,-26.3
2023-01-27T20:05:59.933Z,-26.5
2023-01-27T20:08:01.737Z,-26.3
2023-01-27T20:10:03.647Z,-26.5
2023-01-27T20:12:04.753Z,-26.4
2023-01-27T20:14:06.336Z,-26.4
2023-01-27T20:16:07.805Z,-26.5
2023-01-27T20:22:12.087Z,-26.4
2023-01-27T20:24:13.899Z,-26.7
2023-01-27T20:26:15.769Z,-26.4
2023-01-27T20:28:17.173Z,-26.6
2023-01-27T20:30:18.807Z,-26.4
2023-01-27T20:32:20.363Z,-26.7
2023-01-27T20:34:21.698Z,-26.6
2023-01-27T20:36:23.214Z,-26.7
2023-01-27T20:38:24.594Z,-26.3
2023-01-27T20:42:27.735Z,-26.4
2023-01-27T20:44:29.667Z,-26.6
2023-01-27T20:46:30.815Z,-26.4
2023-01-27T20:48:32.204Z,-26.4
2023-01-27T20:52:35.628Z,-26.6
2023-01-27T20:54:37.148Z,-26.5
2023-01-27T20:56:38.454Z,-26.5
2023-01-27T20:58:40.321Z,-26.6
2023-01-27T21:04:45.378Z,-26.1
2023-01-27T21:06:47.354Z,-26.5
2023-01-27T21:08:49.633Z,-26.5
2023-01-27T21:10:51.150Z,-26.3
2023-01-27T21:12:52.861Z,-26.6
2023-01-27T21:14:54.680Z,-26.3
2023-01-27T21:16:56.697Z,-26.2
2023-01-27T21:18:58.007Z,-26.7
2023-01-27T21:21:00.023Z,-26.6
2023-01-27T21:25:03.163Z,-26.6
2023-01-27T21:27:04.645Z,-26.7
2023-01-27T21:29:06.117Z,-26.7
2023-01-27T21:31:07.791Z,-26.8
2023-01-27T21:33:09.205Z,-26.6
2023-01-27T21:35:10.736Z,-26.7
2023-01-27T21:37:12.542Z,-26.6
2023-01-27T21:39:13.752Z,-26.7
2023-01-27T21:41:15.218Z,-26.9
2023-01-27T21:47:19.659Z,-26.5
2023-01-27T21:49:21.650Z,-26.6
2023-01-27T21:51:23.431Z,-26.6
2023-01-27T21:53:25.053Z,-26.5
2023-01-27T21:55:26.198Z,-26.7
2023-01-27T21:57:27.643Z,-26.6
2023-01-27T22:01:31.765Z,-26.5
2023-01-27T22:03:33.104Z,-26.6
2023-01-27T22:05:34.679Z,-26.3
2023-01-27T22:07:36.104Z,-26.5
2023-01-27T22:09:38.046Z,-26.8
2023-01-27T22:11:39.613Z,-26.5
2023-01-27T22:19:45.207Z,-26.7
2023-01-27T22:21:46.261Z,-26.4
2023-01-27T22:23:48.211Z,-26.9
2023-01-27T22:25:49.337Z,-26.7
2023-01-27T22:27:50.541Z,-26.5
2023-01-27T22:29:51.916Z,-26.3
2023-01-27T22:31:53.120Z,-26.6
2023-01-27T22:33:54.766Z,-26.6
2023-01-27T22:35:56.696Z,-26.7
2023-01-27T22:39:58.927Z,-26.6
2023-01-27T22:44:01.587Z,-26.5
2023-01-27T22:46:03.135Z,-26.2
2023-01-27T22:48:05.111Z,-26.4
2023-01-27T22:50:06.171Z,-26.4
2023-01-27T22:52:08.096Z,-26.7
2023-01-27T22:54:09.178Z,-26.6
2023-01-27T22:56:10.618Z,-26.3
2023-01-27T23:00:13.293Z,-26.5
2023-01-27T23:02:14.495Z,-26.5
2023-01-27T23:04:16.138Z,-26.3
2023-01-27T23:06:17.871Z,-26.6
2023-01-27T23:10:21.476Z,-26.3
2023-01-27T23:12:22.887Z,-26.6
2023-01-27T23:16:26.192Z,-26.7
2023-01-27T23:18:27.953Z,-26.5
2023-01-27T23:20:29.205Z,-26.6
2023-01-27T23:22:31.224Z,-26.4
2023-01-27T23:26:34.257Z,-26.8
2023-01-27T23:28:35.266Z,-26.5
2023-01-27T23:30:36.786Z,-26.3
2023-01-27T23:32:38.290Z,-26.7
2023-01-27T23:34:39.712Z,-26.7
2023-01-27T23:36:41.652Z,-26.7
2023-01-27T23:38:42.960Z,-26.7
2023-01-27T23:42:46.266Z,-26.7
2023-01-27T23:44:47.375Z,-26.6
2023-01-27T23:46:49.116Z,-26.5
2023-01-27T23:48:50.915Z,-26.6
2023-01-27T23:50:52.795Z,-26.2
2023-01-27T23:52:54.449Z,-26.6
2023-01-27T23:54:55.841Z,-26.4
2023-01-27T23:58:58.404Z,-26.4
